createdAt,value
2018-09-08T05:46:35.065Z,8.50
2018-09-08T05:49:03.339Z,7.97
2018-09-08T05:51:31.394Z,8.00
2018-09-08T05:53:59.391Z,9.23
2018-09-08T05:56:27.252Z,8.87
2018-09-08T05:58:55.148Z,9.00
2018-09-08T06:01:23.023Z,10.40
2018-09-08T06:03:51.042Z,12.13
2018-09-08T06:06:18.885Z,12.63
2018-09-08T06:08:47.513Z,10.23
2018-09-08T06:11:16.373Z,10.77
2018-09-08T06:13:44.896Z,10.93
2018-09-08T06:16:12.742Z,11.20
2018-09-08T06:18:40.930Z,12.50
2018-09-08T06:21:08.827Z,11.90
2018-09-08T06:23:36.918Z,11.37
2018-09-08T06:26:08.738Z,11.83
2018-09-08T06:28:37.771Z,12.33
2018-09-08T06:31:07.229Z,11.73
2018-09-08T06:33:35.898Z,12.23
2018-09-08T06:36:09.553Z,11.90
2018-09-08T06:38:37.492Z,11.47
2018-09-08T06:41:05.507Z,11.57
2018-09-08T06:43:33.447Z,11.90
2018-09-08T06:46:01.442Z,10.90
2018-09-08T06:48:29.374Z,11.00
2018-09-08T06:50:57.387Z,12.27
2018-09-08T06:53:26.231Z,12.03
2018-09-08T07:08:19.215Z,11.33
2018-09-08T07:10:47.161Z,11.67
2018-09-08T07:13:15.121Z,10.20
2018-09-08T07:15:43.435Z,9.90
2018-09-08T07:18:11.297Z,10.37
2018-09-08T07:20:39.228Z,9.80
2018-09-08T07:23:07.237Z,10.27
2018-09-08T07:25:38.138Z,9.47
2018-09-08T07:28:06.489Z,9.00
2018-09-08T07:30:34.621Z,10.30
2018-09-08T07:33:02.483Z,9.20
2018-09-08T07:35:30.335Z,8.23
2018-09-08T07:37:58.190Z,8.10
2018-09-08T07:40:26.121Z,8.83
2018-09-08T07:42:53.951Z,8.73
2018-09-08T07:45:21.805Z,8.33
2018-09-08T07:47:49.958Z,6.43
2018-09-08T07:50:18.537Z,7.90
2018-09-08T07:52:46.361Z,7.37
2018-09-08T07:55:14.287Z,7.13
2018-09-08T07:57:42.240Z,7.77
2018-09-08T08:00:10.073Z,7.83
2018-09-08T08:02:38.307Z,8.30
2018-09-08T08:05:06.259Z,5.93
2018-09-08T08:07:34.253Z,7.07
2018-09-08T08:10:02.971Z,6.63
2018-09-08T08:12:30.896Z,6.70
2018-09-08T08:14:58.746Z,6.47
2018-09-08T08:17:27.479Z,6.80
2018-09-08T08:19:55.367Z,7.00
2018-09-08T08:22:24.771Z,7.30
2018-09-08T08:24:52.635Z,6.60
2018-09-08T08:27:22.149Z,5.97
2018-09-08T08:29:50.989Z,5.43
2018-09-08T08:32:18.863Z,6.13
2018-09-08T08:34:46.751Z,5.60
2018-09-08T08:37:14.694Z,5.80
2018-09-08T08:39:42.546Z,6.33
2018-09-08T08:42:10.413Z,5.37
2018-09-08T08:44:38.345Z,6.30
2018-09-08T08:47:09.335Z,6.40
2018-09-08T08:49:38.355Z,5.03
2018-09-08T08:52:12.054Z,4.33
2018-09-08T08:54:42.665Z,5.33
2018-09-08T08:57:10.621Z,5.17
2018-09-08T08:59:40.487Z,5.63
2018-09-08T09:02:09.321Z,5.30
2018-09-08T09:04:37.472Z,6.00
2018-09-08T09:07:05.487Z,4.73
2018-09-08T09:09:33.810Z,5.10
2018-09-08T09:12:01.694Z,6.90
2018-09-08T09:14:30.375Z,6.30
2018-09-08T09:16:58.433Z,5.97
2018-09-08T09:19:34.393Z,6.07
2018-09-08T09:22:07.930Z,4.37
2018-09-08T09:24:41.752Z,5.00
2018-09-08T09:27:10.334Z,6.10
2018-09-08T09:29:38.144Z,5.83
2018-09-08T09:32:06.114Z,5.80
2018-09-08T09:34:33.955Z,4.10
2018-09-08T09:37:01.828Z,4.47
2018-09-08T09:39:29.823Z,3.83
2018-09-08T09:41:57.682Z,3.70
2018-09-08T09:44:26.328Z,3.50
2018-09-08T09:46:54.202Z,3.90
2018-09-08T09:49:22.064Z,5.17
2018-09-08T09:51:50.038Z,4.75
2018-09-08T09:54:17.969Z,4.37
2018-09-08T09:56:45.927Z,4.17
2018-09-08T09:59:14.878Z,3.95
2018-09-08T10:01:47.907Z,2.83
2018-09-08T10:04:16.302Z,4.08
2018-09-08T10:06:44.905Z,2.75
2018-09-08T10:09:12.752Z,2.85
2018-09-08T10:11:41.172Z,3.92
2018-09-08T10:14:09.035Z,2.98
2018-09-08T10:16:37.178Z,3.42
2018-09-08T10:19:05.058Z,4.10
2018-09-08T10:21:32.994Z,4.55
2018-09-08T10:24:05.154Z,3.37
2018-09-08T10:26:29.142Z,4.05
2018-09-08T10:28:57.598Z,3.87
2018-09-08T10:31:25.829Z,3.83
2018-09-08T10:33:53.877Z,5.42
2018-09-08T10:36:21.748Z,5.92
2018-09-08T10:38:49.810Z,5.53
2018-09-08T10:41:17.716Z,4.92
2018-09-08T10:43:46.632Z,4.00
2018-09-08T10:46:14.672Z,3.60
2018-09-08T10:48:42.514Z,2.70
2018-09-08T10:51:16.090Z,2.72
2018-09-08T10:53:44.374Z,2.83
2018-09-08T10:56:13.123Z,3.37
2018-09-08T10:58:41.132Z,2.87
2018-09-08T11:01:09.206Z,3.90
2018-09-08T11:03:37.703Z,2.72
2018-09-08T11:06:05.782Z,2.62
2018-09-08T11:08:33.625Z,3.05
2018-09-08T11:11:01.739Z,3.45
2018-09-08T11:13:29.583Z,2.45
2018-09-08T11:15:57.726Z,2.95
2018-09-08T11:18:25.620Z,3.17
2018-09-08T11:20:53.504Z,3.70
2018-09-08T11:23:22.046Z,4.00
2018-09-08T11:25:49.921Z,2.87
2018-09-08T11:28:17.796Z,3.10
2018-09-08T11:30:45.831Z,2.60
2018-09-08T11:33:13.609Z,2.25
2018-09-08T11:35:41.475Z,3.10
2018-09-08T11:38:09.429Z,2.90
2018-09-08T11:40:37.224Z,2.15
2018-09-08T11:43:05.188Z,3.10
2018-09-08T11:45:33.110Z,2.67
2018-09-08T11:48:01.123Z,2.35
2018-09-08T11:50:28.974Z,2.02
2018-09-08T11:52:56.928Z,2.20
2018-09-08T11:55:24.788Z,2.37
2018-09-08T11:57:52.659Z,2.45
2018-09-08T12:00:20.689Z,2.17
2018-09-08T12:02:48.629Z,1.77
2018-09-08T12:05:17.246Z,2.00
2018-09-08T12:07:45.106Z,1.90
2018-09-08T12:10:13.056Z,1.20
2018-09-08T12:12:40.884Z,1.60
2018-09-08T12:15:09.203Z,2.33
2018-09-08T12:17:37.080Z,1.70
2018-09-08T12:20:06.257Z,1.70
2018-09-08T12:22:34.743Z,1.47
2018-09-08T12:25:10.407Z,1.70
2018-09-08T12:27:38.274Z,1.45
2018-09-08T12:30:07.119Z,1.65
2018-09-08T12:32:35.270Z,1.55
2018-09-08T12:35:08.983Z,1.40
2018-09-08T12:37:37.021Z,1.65
2018-09-08T12:40:05.375Z,1.58
2018-09-08T12:42:34.425Z,1.40
2018-09-08T12:45:02.453Z,1.42
2018-09-08T12:47:30.299Z,1.55
2018-09-08T12:49:58.413Z,1.17
2018-09-08T12:52:26.268Z,1.60
2018-09-08T12:54:54.107Z,1.82
2018-09-08T12:57:22.184Z,1.87
2018-09-08T12:59:50.067Z,1.80
2018-09-08T13:02:17.950Z,2.37
2018-09-08T13:04:45.837Z,1.60
2018-09-08T13:07:13.895Z,1.27
2018-09-08T13:09:43.410Z,1.32
2018-09-08T13:12:12.079Z,1.52
2018-09-08T13:14:39.971Z,1.47
2018-09-08T13:17:08.839Z,1.47
2018-09-08T13:19:37.289Z,1.98
2018-09-08T13:22:09.144Z,1.70
2018-09-08T13:24:37.058Z,1.60
2018-09-08T13:27:05.144Z,1.72
2018-09-08T13:29:32.989Z,2.00
2018-09-08T13:32:00.992Z,1.65
2018-09-08T13:34:32.825Z,1.27
2018-09-08T13:37:01.616Z,1.40
2018-09-08T13:39:31.257Z,2.72
2018-09-08T13:42:01.674Z,3.20
2018-09-08T13:44:33.092Z,1.40
2018-09-08T13:47:01.618Z,1.75
2018-09-08T13:49:29.760Z,2.08
2018-09-08T13:51:58.576Z,2.12
2018-09-08T13:54:26.926Z,1.62
2018-09-08T13:56:55.740Z,1.52
2018-09-08T13:59:24.062Z,1.45
2018-09-08T14:01:55.336Z,1.40
2018-09-08T14:04:25.501Z,1.57
2018-09-08T14:06:57.644Z,1.10
2018-09-08T14:09:27.046Z,2.52
2018-09-08T14:11:57.088Z,1.62
2018-09-08T14:14:25.745Z,2.15
2018-09-08T14:17:12.727Z,1.82
2018-09-08T14:19:41.319Z,1.70
2018-09-08T14:22:09.688Z,1.62
2018-09-08T14:24:41.922Z,1.50
2018-09-08T14:27:10.622Z,1.45
2018-09-08T14:29:45.354Z,1.80
2018-09-08T14:32:16.554Z,1.70
2018-09-08T14:34:46.804Z,1.80
2018-09-08T14:37:15.016Z,2.00
2018-09-08T14:39:46.287Z,1.95
2018-09-08T14:42:16.251Z,4.37
2018-09-08T14:44:44.335Z,1.85
2018-09-08T14:47:12.494Z,1.37
2018-09-08T14:49:40.788Z,1.80
2018-09-08T14:52:11.184Z,1.37
2018-09-08T14:54:40.407Z,1.50
2018-09-08T14:57:09.448Z,1.70
2018-09-08T14:59:37.753Z,1.40
2018-09-08T15:02:06.930Z,1.20
2018-09-08T15:04:35.626Z,1.30
2018-09-08T15:07:03.828Z,1.45
2018-09-08T15:09:32.192Z,1.35
2018-09-08T15:12:01.392Z,1.57
2018-09-08T15:14:29.706Z,2.33
2018-09-08T15:16:58.306Z,1.67
2018-09-08T15:19:27.970Z,1.25
2018-09-08T15:21:56.914Z,1.75
2018-09-08T15:24:26.142Z,1.75
2018-09-08T15:26:54.678Z,1.30
2018-09-08T15:29:22.860Z,1.50
2018-09-08T15:32:00.545Z,1.75
2018-09-08T15:34:28.705Z,1.40
2018-09-08T15:37:08.662Z,1.50
2018-09-08T15:39:39.514Z,1.90
2018-09-08T15:44:50.707Z,1.82
2018-09-08T15:47:18.740Z,1.82
2018-09-08T15:52:29.732Z,1.95
2018-09-08T15:54:59.675Z,1.95
2018-09-08T16:00:26.401Z,1.93
2018-09-08T16:03:02.927Z,1.53
2018-09-08T16:08:12.471Z,1.60
2018-09-08T16:10:44.529Z,2.30
2018-09-08T16:13:19.193Z,2.00
2018-09-08T16:15:50.555Z,1.97
2018-09-08T16:18:20.201Z,1.40
2018-09-08T16:20:53.318Z,1.57
2018-09-08T16:23:24.179Z,1.40
2018-09-08T16:26:00.275Z,1.40
2018-09-08T16:28:30.296Z,1.57
2018-09-08T16:31:03.925Z,2.03
2018-09-08T16:33:43.899Z,1.60
2018-09-08T16:36:25.122Z,1.60
2018-09-08T16:38:59.867Z,1.73
2018-09-08T16:44:13.290Z,3.00
2018-09-08T16:46:46.103Z,2.63
2018-09-08T16:49:15.761Z,2.60
2018-09-08T16:51:44.485Z,2.53
2018-09-08T16:54:14.129Z,1.23
2018-09-08T16:56:47.533Z,1.53
2018-09-08T17:02:10.939Z,1.30
2018-09-08T17:04:39.489Z,1.80
2018-09-08T17:07:13.703Z,1.67
2018-09-08T17:10:05.873Z,1.23
2018-09-08T17:12:37.219Z,1.13
2018-09-08T17:15:08.790Z,2.00
2018-09-08T17:17:37.643Z,1.83
2018-09-08T17:20:10.892Z,1.30
2018-09-08T17:22:46.941Z,1.90
2018-09-08T17:25:21.340Z,1.50
2018-09-08T17:27:54.747Z,1.30
2018-09-08T17:38:36.185Z,4.10
2018-09-08T17:41:05.446Z,1.17
2018-09-08T17:43:52.753Z,1.30
2018-09-08T17:46:22.352Z,1.30
2018-09-08T17:49:09.149Z,1.17
2018-09-08T17:57:14.932Z,2.13
2018-09-08T17:59:45.363Z,3.37
2018-09-08T18:02:15.242Z,2.20
2018-09-08T18:04:49.591Z,1.70
2018-09-08T18:07:19.948Z,1.50
2018-09-08T18:09:50.198Z,1.40
2018-09-08T18:14:53.047Z,1.33
2018-09-08T18:17:36.253Z,1.30
2018-09-08T18:20:06.554Z,1.17
2018-09-08T18:22:37.672Z,1.10
2018-09-08T18:25:06.382Z,1.40
2018-09-08T18:27:35.948Z,1.70
2018-09-08T18:30:04.586Z,1.57
2018-09-08T18:35:49.324Z,2.37
2018-09-08T18:38:20.483Z,2.17
2018-09-08T18:40:53.763Z,1.90
2018-09-08T18:43:23.098Z,2.13
2018-09-08T18:48:29.071Z,2.53
2018-09-08T18:50:59.229Z,2.23
2018-09-08T18:53:30.639Z,1.97
2018-09-08T18:56:00.905Z,1.70
2018-09-08T18:58:30.398Z,2.17
2018-09-08T19:01:18.901Z,2.50
2018-09-08T19:03:52.319Z,1.90
2018-09-08T19:06:28.363Z,1.93
2018-09-08T19:08:56.403Z,2.00
2018-09-08T19:11:25.529Z,2.17
2018-09-08T19:13:53.554Z,3.33
2018-09-08T19:16:22.875Z,4.13
2018-09-08T19:18:53.644Z,3.27
2018-09-08T19:21:21.998Z,2.90
2018-09-08T19:23:54.705Z,2.67
2018-09-08T19:26:42.466Z,1.70
2018-09-08T19:29:24.149Z,2.50
2018-09-08T19:31:52.928Z,2.80
2018-09-08T19:34:22.315Z,2.33
2018-09-08T19:36:50.791Z,2.63
2018-09-08T19:39:19.045Z,2.63
2018-09-08T19:41:49.219Z,2.50
2018-09-08T19:50:30.608Z,7.93
2018-09-08T19:53:03.977Z,5.20
2018-09-08T19:55:33.246Z,3.27
2018-09-08T19:58:06.571Z,3.27
2018-09-08T20:03:11.808Z,2.70
2018-09-08T20:08:32.640Z,3.13
2018-09-08T20:11:00.561Z,3.70
2018-09-08T20:13:31.155Z,10.50
2018-09-08T20:15:59.632Z,22.60
2018-09-08T20:18:27.518Z,5.27
2018-09-08T20:20:55.995Z,5.43
2018-09-08T20:23:23.843Z,5.50
2018-09-08T20:25:52.159Z,4.80
2018-09-08T20:28:20.050Z,4.73
2018-09-08T20:30:48.003Z,4.70
2018-09-08T20:33:15.885Z,5.23
2018-09-08T20:35:44.347Z,6.07
2018-09-08T20:38:12.227Z,3.40
2018-09-08T20:40:40.579Z,5.07
2018-09-08T20:43:11.211Z,3.80
2018-09-08T20:45:39.215Z,4.07
2018-09-08T20:48:09.079Z,6.23
2018-09-08T20:50:37.007Z,6.07
2018-09-08T20:53:04.907Z,5.97
2018-09-08T20:55:33.559Z,5.10
2018-09-08T21:00:32.096Z,5.00
2018-09-08T21:02:59.971Z,4.83
2018-09-08T21:05:27.817Z,3.57
2018-09-08T21:07:55.711Z,3.20
2018-09-08T21:10:23.571Z,6.73
2018-09-08T21:12:51.587Z,6.77
2018-09-08T21:15:19.629Z,5.60
2018-09-08T21:17:47.571Z,4.77
2018-09-08T21:20:15.427Z,13.07
2018-09-08T21:22:43.369Z,15.13
2018-09-08T21:25:11.317Z,9.17
2018-09-08T21:27:39.248Z,8.97
2018-09-08T21:30:09.199Z,10.47
2018-09-08T21:32:37.199Z,13.37
2018-09-08T21:35:05.761Z,12.60
2018-09-08T21:37:33.670Z,13.93
2018-09-08T21:40:09.674Z,12.83
2018-09-08T21:42:38.638Z,9.50
2018-09-08T21:45:10.285Z,7.40
2018-09-08T21:47:38.263Z,9.80
2018-09-08T21:50:06.158Z,9.17
2018-09-08T21:52:34.063Z,7.17
2018-09-08T21:55:08.213Z,5.93
2018-09-08T21:57:39.303Z,7.53
2018-09-08T22:00:10.921Z,5.90
2018-09-08T22:02:42.722Z,4.73
2018-09-08T22:05:14.407Z,5.03
2018-09-08T22:07:46.670Z,4.67
2018-09-08T22:10:17.775Z,4.03
2018-09-08T22:12:49.322Z,3.93
2018-09-08T22:15:20.947Z,4.50
2018-09-08T22:17:52.860Z,4.77
2018-09-08T22:20:24.694Z,5.20
2018-09-08T22:22:56.770Z,4.63
2018-09-08T22:25:28.118Z,3.93
2018-09-08T22:27:59.718Z,3.07
2018-09-08T22:30:30.558Z,3.07
2018-09-08T22:33:10.904Z,3.30
2018-09-08T22:35:44.917Z,4.27
2018-09-08T22:38:16.448Z,4.90
2018-09-08T22:40:48.070Z,5.07
2018-09-08T22:43:19.926Z,5.60
2018-09-08T22:45:51.511Z,6.27
2018-09-08T22:48:23.094Z,5.77
2018-09-08T22:50:54.626Z,4.97
2018-09-08T22:53:26.296Z,6.73
2018-09-08T22:55:58.098Z,4.97
2018-09-08T22:58:29.648Z,7.20
2018-09-08T23:01:01.343Z,5.87
2018-09-08T23:03:33.103Z,5.30
2018-09-08T23:06:11.002Z,5.90
2018-09-08T23:08:42.076Z,5.87
2018-09-08T23:11:13.003Z,5.53
2018-09-08T23:13:44.604Z,5.70
2018-09-08T23:16:16.252Z,5.50
2018-09-08T23:18:47.232Z,5.50
2018-09-08T23:21:18.804Z,6.13
2018-09-08T23:23:50.383Z,6.10
2018-09-08T23:26:22.081Z,4.80
2018-09-08T23:28:53.746Z,4.97
2018-09-08T23:31:25.355Z,4.50
2018-09-08T23:33:56.930Z,4.17
2018-09-08T23:36:28.519Z,4.10
2018-09-08T23:39:00.302Z,4.63
2018-09-08T23:41:32.596Z,4.13
2018-09-08T23:44:03.549Z,5.07
2018-09-08T23:46:35.231Z,5.23
2018-09-08T23:51:50.394Z,5.87
2018-09-08T23:54:18.635Z,5.43
2018-09-08T23:56:47.644Z,5.13
2018-09-08T23:59:17.078Z,4.80
